Ridgecrest, California
Current Conditions -  °F | °C
As of 11:56 AM on Sunday 23 Nov 2014 (Local Time) from KNID Reporting Station
Clear Clear  
Wind Chill: 62°   Ceiling: Unl
Heat Index: 62°   Visibility: 10mi
Dew Point: 16°   Wind: 6mph
Humidity: 17%   Direction: 110°ESE
Pressure: 30.26"   Gusts: NA
Location:  35.62°N, 117.66°W
Report Text: KNID 231956Z AUTO 11005KT 10SM CLR 17/M09 A3026 RMK AO2 SLP244 T01671089 $
Loading
Personal Weather Stations






























Interactive Weather Map New forecast layout! Learn more

10-Day Weather Forecast

Advertisements
Track Severe Weather on mobile